sensor_id;sensor_type;location;lat;lon;timestamp;P1;durP1;ratioP1;P2;durP2;ratioP2
64063;SDS011;50314;50.618;10.642;2023-02-24T00:00:02;3.03;;;2.15;;
64063;SDS011;50314;50.618;10.642;2023-02-24T00:02:50;1.92;;;1.65;;
64063;SDS011;50314;50.618;10.642;2023-02-24T00:05:16;3.08;;;2.28;;
64063;SDS011;50314;50.618;10.642;2023-02-24T00:07:42;2.47;;;1.95;;
64063;SDS011;50314;50.618;10.642;2023-02-24T00:10:08;3.40;;;2.42;;
64063;SDS011;50314;50.618;10.642;2023-02-24T00:12:35;2.30;;;2.10;;
64063;SDS011;50314;50.618;10.642;2023-02-24T00:15:00;2.70;;;2.15;;
64063;SDS011;50314;50.618;10.642;2023-02-24T00:17:26;2.30;;;1.90;;
64063;SDS011;50314;50.618;10.642;2023-02-24T00:19:54;2.55;;;1.90;;
64063;SDS011;50314;50.618;10.642;2023-02-24T00:22:20;3.05;;;2.08;;
64063;SDS011;50314;50.618;10.642;2023-02-24T00:24:46;2.95;;;2.28;;
64063;SDS011;50314;50.618;10.642;2023-02-24T00:27:11;2.80;;;2.05;;
64063;SDS011;50314;50.618;10.642;2023-02-24T00:29:37;2.70;;;1.98;;
64063;SDS011;50314;50.618;10.642;2023-02-24T00:34:32;2.50;;;1.98;;
64063;SDS011;50314;50.618;10.642;2023-02-24T00:37:00;2.80;;;2.00;;
64063;SDS011;50314;50.618;10.642;2023-02-24T00:39:27;2.67;;;1.88;;
64063;SDS011;50314;50.618;10.642;2023-02-24T00:41:54;2.95;;;2.15;;
64063;SDS011;50314;50.618;10.642;2023-02-24T00:44:28;2.75;;;1.85;;
64063;SDS011;50314;50.618;10.642;2023-02-24T00:46:56;2.58;;;2.00;;
64063;SDS011;50314;50.618;10.642;2023-02-24T00:49:22;2.75;;;2.00;;
64063;SDS011;50314;50.618;10.642;2023-02-24T00:51:48;2.20;;;1.80;;
64063;SDS011;50314;50.618;10.642;2023-02-24T00:54:18;2.70;;;1.80;;
64063;SDS011;50314;50.618;10.642;2023-02-24T00:56:45;2.53;;;1.92;;
64063;SDS011;50314;50.618;10.642;2023-02-24T00:59:13;1.98;;;1.77;;
64063;SDS011;50314;50.618;10.642;2023-02-24T01:01:41;2.45;;;1.90;;
64063;SDS011;50314;50.618;10.642;2023-02-24T01:04:08;2.33;;;1.88;;
64063;SDS011;50314;50.618;10.642;2023-02-24T01:06:42;2.47;;;2.00;;
64063;SDS011;50314;50.618;10.642;2023-02-24T01:09:13;3.13;;;2.08;;
64063;SDS011;50314;50.618;10.642;2023-02-24T01:11:41;2.28;;;1.85;;
64063;SDS011;50314;50.618;10.642;2023-02-24T01:14:43;1.95;;;1.70;;
64063;SDS011;50314;50.618;10.642;2023-02-24T01:17:12;2.78;;;1.83;;
64063;SDS011;50314;50.618;10.642;2023-02-24T01:19:38;2.13;;;1.58;;
64063;SDS011;50314;50.618;10.642;2023-02-24T01:22:05;2.58;;;1.70;;
64063;SDS011;50314;50.618;10.642;2023-02-24T01:24:34;2.65;;;1.75;;
64063;SDS011;50314;50.618;10.642;2023-02-24T01:27:01;2.22;;;1.70;;
64063;SDS011;50314;50.618;10.642;2023-02-24T01:29:26;2.30;;;1.50;;
64063;SDS011;50314;50.618;10.642;2023-02-24T01:31:52;2.08;;;1.60;;
64063;SDS011;50314;50.618;10.642;2023-02-24T01:34:22;2.72;;;1.80;;
64063;SDS011;50314;50.618;10.642;2023-02-24T01:36:51;2.08;;;1.75;;
64063;SDS011;50314;50.618;10.642;2023-02-24T01:39:16;2.67;;;1.85;;
64063;SDS011;50314;50.618;10.642;2023-02-24T01:41:43;1.92;;;1.67;;
64063;SDS011;50314;50.618;10.642;2023-02-24T01:46:39;1.77;;;1.58;;
64063;SDS011;50314;50.618;10.642;2023-02-24T01:51:58;2.13;;;1.50;;
64063;SDS011;50314;50.618;10.642;2023-02-24T01:54:32;2.42;;;1.40;;
64063;SDS011;50314;50.618;10.642;2023-02-24T01:57:05;2.05;;;1.88;;
64063;SDS011;50314;50.618;10.642;2023-02-24T01:59:32;1.92;;;1.60;;
64063;SDS011;50314;50.618;10.642;2023-02-24T02:04:45;1.77;;;1.50;;
64063;SDS011;50314;50.618;10.642;2023-02-24T02:07:16;2.17;;;1.65;;
64063;SDS011;50314;50.618;10.642;2023-02-24T02:09:44;3.25;;;2.15;;
64063;SDS011;50314;50.618;10.642;2023-02-24T02:22:48;2.15;;;1.40;;
64063;SDS011;50314;50.618;10.642;2023-02-24T02:33:49;2.45;;;1.52;;
64063;SDS011;50314;50.618;10.642;2023-02-24T02:36:53;2.08;;;1.40;;
64063;SDS011;50314;50.618;10.642;2023-02-24T02:45:18;2.45;;;1.42;;
64063;SDS011;50314;50.618;10.642;2023-02-24T02:48:02;2.03;;;1.33;;
64063;SDS011;50314;50.618;10.642;2023-02-24T02:53:35;2.50;;;1.45;;
64063;SDS011;50314;50.618;10.642;2023-02-24T02:56:18;1.98;;;1.30;;
64063;SDS011;50314;50.618;10.642;2023-02-24T02:58:50;1.67;;;1.35;;
64063;SDS011;50314;50.618;10.642;2023-02-24T03:01:20;1.23;;;1.13;;
64063;SDS011;50314;50.618;10.642;2023-02-24T03:03:49;1.88;;;1.50;;
64063;SDS011;50314;50.618;10.642;2023-02-24T03:06:28;1.95;;;1.30;;
64063;SDS011;50314;50.618;10.642;2023-02-24T03:08:58;1.98;;;1.40;;
64063;SDS011;50314;50.618;10.642;2023-02-24T03:11:42;1.30;;;1.20;;
64063;SDS011;50314;50.618;10.642;2023-02-24T03:14:15;1.63;;;1.20;;
64063;SDS011;50314;50.618;10.642;2023-02-24T03:16:43;1.95;;;1.55;;
64063;SDS011;50314;50.618;10.642;2023-02-24T03:19:13;1.50;;;1.38;;
64063;SDS011;50314;50.618;10.642;2023-02-24T03:21:45;1.30;;;1.20;;
64063;SDS011;50314;50.618;10.642;2023-02-24T03:24:16;1.70;;;1.50;;
64063;SDS011;50314;50.618;10.642;2023-02-24T03:26:45;1.40;;;1.20;;
64063;SDS011;50314;50.618;10.642;2023-02-24T03:32:04;1.45;;;1.20;;
64063;SDS011;50314;50.618;10.642;2023-02-24T03:37:23;1.92;;;1.40;;
64063;SDS011;50314;50.618;10.642;2023-02-24T03:39:58;1.77;;;1.15;;
64063;SDS011;50314;50.618;10.642;2023-02-24T03:42:35;1.48;;;1.00;;
64063;SDS011;50314;50.618;10.642;2023-02-24T03:45:04;2.08;;;1.60;;
64063;SDS011;50314;50.618;10.642;2023-02-24T03:47:30;2.33;;;1.30;;
64063;SDS011;50314;50.618;10.642;2023-02-24T03:49:57;2.05;;;1.38;;
64063;SDS011;50314;50.618;10.642;2023-02-24T03:52:38;1.75;;;1.23;;
64063;SDS011;50314;50.618;10.642;2023-02-24T03:55:49;1.90;;;1.10;;
64063;SDS011;50314;50.618;10.642;2023-02-24T04:09:14;1.63;;;1.30;;
64063;SDS011;50314;50.618;10.642;2023-02-24T04:11:52;2.03;;;1.30;;
64063;SDS011;50314;50.618;10.642;2023-02-24T04:14:28;1.45;;;0.98;;
64063;SDS011;50314;50.618;10.642;2023-02-24T04:17:02;2.47;;;1.38;;
64063;SDS011;50314;50.618;10.642;2023-02-24T04:19:35;2.17;;;1.20;;
64063;SDS011;50314;50.618;10.642;2023-02-24T04:22:07;1.50;;;1.00;;
64063;SDS011;50314;50.618;10.642;2023-02-24T04:24:37;1.40;;;1.08;;
64063;SDS011;50314;50.618;10.642;2023-02-24T04:27:04;1.98;;;1.15;;
64063;SDS011;50314;50.618;10.642;2023-02-24T04:29:33;1.38;;;1.10;;
64063;SDS011;50314;50.618;10.642;2023-02-24T04:32:05;1.20;;;1.05;;
64063;SDS011;50314;50.618;10.642;2023-02-24T04:34:34;2.47;;;1.75;;
64063;SDS011;50314;50.618;10.642;2023-02-24T04:37:00;1.52;;;1.10;;
64063;SDS011;50314;50.618;10.642;2023-02-24T04:39:26;2.08;;;1.33;;
64063;SDS011;50314;50.618;10.642;2023-02-24T04:41:53;1.20;;;1.10;;
64063;SDS011;50314;50.618;10.642;2023-02-24T04:44:19;1.50;;;1.20;;
64063;SDS011;50314;50.618;10.642;2023-02-24T04:46:46;1.48;;;1.20;;
64063;SDS011;50314;50.618;10.642;2023-02-24T04:49:17;1.27;;;1.00;;
64063;SDS011;50314;50.618;10.642;2023-02-24T04:51:43;1.00;;;0.93;;
64063;SDS011;50314;50.618;10.642;2023-02-24T04:54:10;2.45;;;1.50;;
64063;SDS011;50314;50.618;10.642;2023-02-24T04:56:47;1.02;;;0.93;;
64063;SDS011;50314;50.618;10.642;2023-02-24T04:59:19;1.38;;;1.00;;
64063;SDS011;50314;50.618;10.642;2023-02-24T05:01:46;1.45;;;1.20;;
64063;SDS011;50314;50.618;10.642;2023-02-24T05:04:15;1.33;;;1.15;;
64063;SDS011;50314;50.618;10.642;2023-02-24T05:06:41;1.23;;;1.10;;
64063;SDS011;50314;50.618;10.642;2023-02-24T05:09:11;1.58;;;1.00;;
64063;SDS011;50314;50.618;10.642;2023-02-24T05:11:40;1.45;;;1.00;;
64063;SDS011;50314;50.618;10.642;2023-02-24T05:14:08;1.38;;;1.10;;
64063;SDS011;50314;50.618;10.642;2023-02-24T05:16:34;1.10;;;0.90;;
64063;SDS011;50314;50.618;10.642;2023-02-24T05:19:01;1.48;;;1.00;;
64063;SDS011;50314;50.618;10.642;2023-02-24T05:21:46;1.80;;;1.20;;
64063;SDS011;50314;50.618;10.642;2023-02-24T05:24:11;1.42;;;0.95;;
64063;SDS011;50314;50.618;10.642;2023-02-24T05:26:41;1.35;;;1.08;;
64063;SDS011;50314;50.618;10.642;2023-02-24T05:29:06;5.03;;;1.05;;
64063;SDS011;50314;50.618;10.642;2023-02-24T05:31:32;1.75;;;1.15;;
64063;SDS011;50314;50.618;10.642;2023-02-24T05:33:59;1.23;;;0.90;;
64063;SDS011;50314;50.618;10.642;2023-02-24T05:36:28;1.10;;;0.90;;
64063;SDS011;50314;50.618;10.642;2023-02-24T05:38:56;1.20;;;0.90;;
64063;SDS011;50314;50.618;10.642;2023-02-24T05:41:22;1.17;;;0.90;;
64063;SDS011;50314;50.618;10.642;2023-02-24T05:44:00;1.17;;;1.08;;
64063;SDS011;50314;50.618;10.642;2023-02-24T05:46:29;1.55;;;1.05;;
64063;SDS011;50314;50.618;10.642;2023-02-24T05:49:00;1.20;;;0.88;;
64063;SDS011;50314;50.618;10.642;2023-02-24T05:51:32;1.60;;;1.15;;
64063;SDS011;50314;50.618;10.642;2023-02-24T05:54:02;1.17;;;0.90;;
64063;SDS011;50314;50.618;10.642;2023-02-24T05:56:30;1.10;;;1.00;;
64063;SDS011;50314;50.618;10.642;2023-02-24T05:58:57;1.17;;;1.00;;
64063;SDS011;50314;50.618;10.642;2023-02-24T06:01:31;2.70;;;1.10;;
64063;SDS011;50314;50.618;10.642;2023-02-24T06:03:59;1.88;;;1.10;;
64063;SDS011;50314;50.618;10.642;2023-02-24T06:09:11;1.20;;;1.10;;
64063;SDS011;50314;50.618;10.642;2023-02-24T06:11:38;1.58;;;1.10;;
64063;SDS011;50314;50.618;10.642;2023-02-24T06:14:05;1.35;;;1.00;;
64063;SDS011;50314;50.618;10.642;2023-02-24T06:16:34;1.00;;;0.80;;
64063;SDS011;50314;50.618;10.642;2023-02-24T06:19:01;1.58;;;0.90;;
64063;SDS011;50314;50.618;10.642;2023-02-24T06:21:29;1.27;;;1.02;;
64063;SDS011;50314;50.618;10.642;2023-02-24T06:23:55;1.60;;;1.50;;
64063;SDS011;50314;50.618;10.642;2023-02-24T06:26:22;1.38;;;0.93;;
64063;SDS011;50314;50.618;10.642;2023-02-24T06:28:50;1.20;;;1.00;;
64063;SDS011;50314;50.618;10.642;2023-02-24T06:31:18;1.45;;;1.20;;
64063;SDS011;50314;50.618;10.642;2023-02-24T06:33:45;2.15;;;0.95;;
64063;SDS011;50314;50.618;10.642;2023-02-24T06:36:11;1.77;;;1.10;;
64063;SDS011;50314;50.618;10.642;2023-02-24T06:38:40;1.58;;;0.90;;
64063;SDS011;50314;50.618;10.642;2023-02-24T06:41:07;1.55;;;0.93;;
64063;SDS011;50314;50.618;10.642;2023-02-24T06:43:36;1.52;;;1.00;;
64063;SDS011;50314;50.618;10.642;2023-02-24T06:46:07;1.30;;;0.95;;
64063;SDS011;50314;50.618;10.642;2023-02-24T06:48:35;1.00;;;0.90;;
64063;SDS011;50314;50.618;10.642;2023-02-24T06:51:12;1.17;;;0.88;;
64063;SDS011;50314;50.618;10.642;2023-02-24T06:53:40;1.77;;;1.27;;
64063;SDS011;50314;50.618;10.642;2023-02-24T06:56:09;1.95;;;1.15;;
64063;SDS011;50314;50.618;10.642;2023-02-24T06:58:39;1.95;;;1.20;;
64063;SDS011;50314;50.618;10.642;2023-02-24T07:01:12;1.17;;;0.98;;
64063;SDS011;50314;50.618;10.642;2023-02-24T07:03:41;1.30;;;1.00;;
64063;SDS011;50314;50.618;10.642;2023-02-24T07:06:26;2.15;;;1.40;;
64063;SDS011;50314;50.618;10.642;2023-02-24T07:08:53;1.83;;;1.40;;
64063;SDS011;50314;50.618;10.642;2023-02-24T07:11:22;2.65;;;1.40;;
64063;SDS011;50314;50.618;10.642;2023-02-24T07:13:48;1.95;;;1.35;;
64063;SDS011;50314;50.618;10.642;2023-02-24T07:16:17;3.47;;;1.80;;
64063;SDS011;50314;50.618;10.642;2023-02-24T07:18:43;2.88;;;1.88;;
64063;SDS011;50314;50.618;10.642;2023-02-24T07:21:12;2.30;;;1.52;;
64063;SDS011;50314;50.618;10.642;2023-02-24T07:23:41;3.42;;;1.85;;
64063;SDS011;50314;50.618;10.642;2023-02-24T07:26:08;2.00;;;1.40;;
64063;SDS011;50314;50.618;10.642;2023-02-24T07:28:39;2.15;;;1.50;;
64063;SDS011;50314;50.618;10.642;2023-02-24T07:31:06;2.15;;;1.45;;
64063;SDS011;50314;50.618;10.642;2023-02-24T07:33:37;2.30;;;1.60;;
64063;SDS011;50314;50.618;10.642;2023-02-24T07:36:04;2.28;;;1.45;;
64063;SDS011;50314;50.618;10.642;2023-02-24T07:38:35;2.28;;;1.50;;
64063;SDS011;50314;50.618;10.642;2023-02-24T07:41:01;2.75;;;1.30;;
64063;SDS011;50314;50.618;10.642;2023-02-24T07:43:27;2.03;;;1.42;;
64063;SDS011;50314;50.618;10.642;2023-02-24T07:45:53;3.88;;;1.40;;
64063;SDS011;50314;50.618;10.642;2023-02-24T07:48:18;2.03;;;1.50;;
64063;SDS011;50314;50.618;10.642;2023-02-24T07:50:45;1.63;;;1.23;;
64063;SDS011;50314;50.618;10.642;2023-02-24T07:53:10;1.65;;;1.10;;
64063;SDS011;50314;50.618;10.642;2023-02-24T07:55:36;2.03;;;1.20;;
64063;SDS011;50314;50.618;10.642;2023-02-24T07:58:01;1.80;;;1.13;;
64063;SDS011;50314;50.618;10.642;2023-02-24T08:00:30;1.83;;;1.20;;
64063;SDS011;50314;50.618;10.642;2023-02-24T08:03:09;1.70;;;1.10;;
64063;SDS011;50314;50.618;10.642;2023-02-24T08:05:34;1.83;;;1.27;;
64063;SDS011;50314;50.618;10.642;2023-02-24T08:08:00;2.05;;;1.17;;
64063;SDS011;50314;50.618;10.642;2023-02-24T08:10:27;1.73;;;1.25;;
64063;SDS011;50314;50.618;10.642;2023-02-24T08:12:59;1.92;;;1.30;;
64063;SDS011;50314;50.618;10.642;2023-02-24T08:15:27;1.50;;;1.10;;
64063;SDS011;50314;50.618;10.642;2023-02-24T08:17:58;2.20;;;1.67;;
64063;SDS011;50314;50.618;10.642;2023-02-24T08:20:25;1.15;;;1.00;;
64063;SDS011;50314;50.618;10.642;2023-02-24T08:22:54;1.92;;;1.33;;
64063;SDS011;50314;50.618;10.642;2023-02-24T08:25:21;2.03;;;1.45;;
64063;SDS011;50314;50.618;10.642;2023-02-24T08:27:50;1.33;;;1.23;;
64063;SDS011;50314;50.618;10.642;2023-02-24T08:30:20;1.65;;;1.20;;
64063;SDS011;50314;50.618;10.642;2023-02-24T08:32:48;1.55;;;1.30;;
64063;SDS011;50314;50.618;10.642;2023-02-24T08:35:21;3.20;;;1.85;;
64063;SDS011;50314;50.618;10.642;2023-02-24T08:37:53;3.42;;;2.00;;
64063;SDS011;50314;50.618;10.642;2023-02-24T08:42:56;4.00;;;2.15;;
64063;SDS011;50314;50.618;10.642;2023-02-24T08:45:41;3.42;;;2.35;;
64063;SDS011;50314;50.618;10.642;2023-02-24T08:48:08;3.17;;;2.05;;
64063;SDS011;50314;50.618;10.642;2023-02-24T08:50:51;3.47;;;1.80;;
64063;SDS011;50314;50.618;10.642;2023-02-24T08:53:21;2.42;;;1.80;;
64063;SDS011;50314;50.618;10.642;2023-02-24T08:55:53;2.03;;;1.50;;
64063;SDS011;50314;50.618;10.642;2023-02-24T08:58:19;2.30;;;1.50;;
64063;SDS011;50314;50.618;10.642;2023-02-24T09:00:54;3.20;;;2.17;;
64063;SDS011;50314;50.618;10.642;2023-02-24T09:03:22;2.25;;;1.60;;
64063;SDS011;50314;50.618;10.642;2023-02-24T09:06:06;2.50;;;1.35;;
64063;SDS011;50314;50.618;10.642;2023-02-24T09:08:36;2.03;;;1.60;;
64063;SDS011;50314;50.618;10.642;2023-02-24T09:11:05;2.58;;;1.60;;
64063;SDS011;50314;50.618;10.642;2023-02-24T09:13:36;2.20;;;1.70;;
64063;SDS011;50314;50.618;10.642;2023-02-24T09:16:07;2.20;;;1.40;;
64063;SDS011;50314;50.618;10.642;2023-02-24T09:18:40;2.40;;;1.50;;
64063;SDS011;50314;50.618;10.642;2023-02-24T09:21:10;2.47;;;1.33;;
64063;SDS011;50314;50.618;10.642;2023-02-24T09:23:42;3.72;;;1.88;;
64063;SDS011;50314;50.618;10.642;2023-02-24T09:26:11;1.73;;;1.13;;
64063;SDS011;50314;50.618;10.642;2023-02-24T09:28:39;1.98;;;1.33;;
64063;SDS011;50314;50.618;10.642;2023-02-24T09:31:18;3.42;;;1.52;;
64063;SDS011;50314;50.618;10.642;2023-02-24T09:33:47;2.20;;;1.20;;
64063;SDS011;50314;50.618;10.642;2023-02-24T09:36:18;1.83;;;1.35;;
64063;SDS011;50314;50.618;10.642;2023-02-24T09:38:53;1.98;;;1.20;;
64063;SDS011;50314;50.618;10.642;2023-02-24T09:47:04;2.05;;;1.10;;
64063;SDS011;50314;50.618;10.642;2023-02-24T09:49:51;2.38;;;1.00;;
64063;SDS011;50314;50.618;10.642;2023-02-24T09:52:20;1.67;;;1.10;;
64063;SDS011;50314;50.618;10.642;2023-02-24T09:55:04;1.25;;;1.10;;
64063;SDS011;50314;50.618;10.642;2023-02-24T09:57:50;1.58;;;1.05;;
64063;SDS011;50314;50.618;10.642;2023-02-24T10:03:45;0.85;;;0.80;;
64063;SDS011;50314;50.618;10.642;2023-02-24T10:06:26;1.35;;;0.95;;
64063;SDS011;50314;50.618;10.642;2023-02-24T10:09:03;1.13;;;0.90;;
64063;SDS011;50314;50.618;10.642;2023-02-24T10:11:39;1.00;;;0.90;;
64063;SDS011;50314;50.618;10.642;2023-02-24T10:16:44;1.15;;;0.93;;
64063;SDS011;50314;50.618;10.642;2023-02-24T10:19:31;1.45;;;0.90;;
64063;SDS011;50314;50.618;10.642;2023-02-24T10:24:57;1.83;;;1.00;;
64063;SDS011;50314;50.618;10.642;2023-02-24T10:30:42;2.20;;;1.00;;
64063;SDS011;50314;50.618;10.642;2023-02-24T10:33:19;2.45;;;1.02;;
64063;SDS011;50314;50.618;10.642;2023-02-24T10:35:49;1.35;;;1.10;;
64063;SDS011;50314;50.618;10.642;2023-02-24T10:38:18;1.13;;;1.00;;
64063;SDS011;50314;50.618;10.642;2023-02-24T10:40:53;3.25;;;1.02;;
64063;SDS011;50314;50.618;10.642;2023-02-24T10:43:23;1.67;;;1.23;;
64063;SDS011;50314;50.618;10.642;2023-02-24T10:46:16;3.05;;;1.20;;
64063;SDS011;50314;50.618;10.642;2023-02-24T10:48:56;1.10;;;1.00;;
64063;SDS011;50314;50.618;10.642;2023-02-24T10:51:34;1.20;;;1.00;;
64063;SDS011;50314;50.618;10.642;2023-02-24T10:54:06;1.48;;;1.23;;
64063;SDS011;50314;50.618;10.642;2023-02-24T10:56:54;1.27;;;1.05;;
64063;SDS011;50314;50.618;10.642;2023-02-24T10:59:39;1.95;;;1.27;;
64063;SDS011;50314;50.618;10.642;2023-02-24T11:02:23;1.80;;;1.25;;
64063;SDS011;50314;50.618;10.642;2023-02-24T11:04:57;1.38;;;1.00;;
64063;SDS011;50314;50.618;10.642;2023-02-24T11:07:27;1.52;;;1.30;;
64063;SDS011;50314;50.618;10.642;2023-02-24T11:10:18;3.88;;;1.65;;
64063;SDS011;50314;50.618;10.642;2023-02-24T11:13:11;2.25;;;1.35;;
64063;SDS011;50314;50.618;10.642;2023-02-24T11:15:58;2.10;;;1.40;;
64063;SDS011;50314;50.618;10.642;2023-02-24T11:18:45;1.52;;;1.20;;
64063;SDS011;50314;50.618;10.642;2023-02-24T11:21:14;2.25;;;1.17;;
64063;SDS011;50314;50.618;10.642;2023-02-24T11:23:42;1.67;;;1.27;;
64063;SDS011;50314;50.618;10.642;2023-02-24T11:37:02;1.70;;;1.23;;
64063;SDS011;50314;50.618;10.642;2023-02-24T11:42:30;1.48;;;1.10;;
64063;SDS011;50314;50.618;10.642;2023-02-24T11:45:03;1.75;;;1.42;;
64063;SDS011;50314;50.618;10.642;2023-02-24T11:47:52;1.63;;;1.05;;
64063;SDS011;50314;50.618;10.642;2023-02-24T11:52:57;2.53;;;1.45;;
64063;SDS011;50314;50.618;10.642;2023-02-24T11:55:30;3.25;;;2.03;;
64063;SDS011;50314;50.618;10.642;2023-02-24T11:58:06;3.35;;;1.90;;
64063;SDS011;50314;50.618;10.642;2023-02-24T12:00:45;2.38;;;1.40;;
64063;SDS011;50314;50.618;10.642;2023-02-24T12:06:03;2.42;;;1.60;;
64063;SDS011;50314;50.618;10.642;2023-02-24T12:08:37;2.05;;;1.60;;
64063;SDS011;50314;50.618;10.642;2023-02-24T12:11:17;1.77;;;1.40;;
64063;SDS011;50314;50.618;10.642;2023-02-24T12:16:34;2.45;;;1.65;;
64063;SDS011;50314;50.618;10.642;2023-02-24T12:22:13;2.20;;;1.40;;
64063;SDS011;50314;50.618;10.642;2023-02-24T12:24:44;2.08;;;1.38;;
64063;SDS011;50314;50.618;10.642;2023-02-24T12:32:33;2.33;;;1.63;;
64063;SDS011;50314;50.618;10.642;2023-02-24T12:37:58;2.13;;;1.45;;
64063;SDS011;50314;50.618;10.642;2023-02-24T12:40:53;2.33;;;1.42;;
64063;SDS011;50314;50.618;10.642;2023-02-24T12:46:20;3.83;;;1.70;;
64063;SDS011;50314;50.618;10.642;2023-02-24T12:48:55;1.70;;;1.33;;
64063;SDS011;50314;50.618;10.642;2023-02-24T12:51:47;2.97;;;2.17;;
64063;SDS011;50314;50.618;10.642;2023-02-24T13:00:00;2.58;;;1.55;;
64063;SDS011;50314;50.618;10.642;2023-02-24T13:05:23;2.17;;;1.60;;
64063;SDS011;50314;50.618;10.642;2023-02-24T13:15:52;2.92;;;1.52;;
64063;SDS011;50314;50.618;10.642;2023-02-24T13:21:02;2.10;;;1.38;;
64063;SDS011;50314;50.618;10.642;2023-02-24T13:23:33;2.00;;;1.30;;
64063;SDS011;50314;50.618;10.642;2023-02-24T13:26:00;2.08;;;1.40;;
64063;SDS011;50314;50.618;10.642;2023-02-24T13:33:31;3.40;;;1.70;;
64063;SDS011;50314;50.618;10.642;2023-02-24T13:36:07;2.15;;;1.20;;
64063;SDS011;50314;50.618;10.642;2023-02-24T13:38:37;2.92;;;1.50;;
64063;SDS011;50314;50.618;10.642;2023-02-24T13:41:31;1.98;;;1.40;;
64063;SDS011;50314;50.618;10.642;2023-02-24T13:44:02;1.55;;;1.25;;
64063;SDS011;50314;50.618;10.642;2023-02-24T14:00:27;2.08;;;1.40;;
64063;SDS011;50314;50.618;10.642;2023-02-24T14:03:16;2.28;;;1.40;;
64063;SDS011;50314;50.618;10.642;2023-02-24T14:05:44;1.73;;;1.27;;
64063;SDS011;50314;50.618;10.642;2023-02-24T14:11:06;2.17;;;1.55;;
64063;SDS011;50314;50.618;10.642;2023-02-24T14:13:36;1.95;;;1.35;;
64063;SDS011;50314;50.618;10.642;2023-02-24T14:16:05;1.88;;;1.30;;
64063;SDS011;50314;50.618;10.642;2023-02-24T14:18:32;1.83;;;1.30;;
64063;SDS011;50314;50.618;10.642;2023-02-24T14:20:58;1.55;;;1.10;;
64063;SDS011;50314;50.618;10.642;2023-02-24T14:23:27;1.85;;;1.40;;
64063;SDS011;50314;50.618;10.642;2023-02-24T14:25:56;2.42;;;1.45;;
64063;SDS011;50314;50.618;10.642;2023-02-24T14:28:42;2.75;;;1.75;;
64063;SDS011;50314;50.618;10.642;2023-02-24T14:31:15;1.60;;;1.13;;
64063;SDS011;50314;50.618;10.642;2023-02-24T14:33:47;1.92;;;1.30;;
64063;SDS011;50314;50.618;10.642;2023-02-24T14:36:24;2.30;;;1.77;;
64063;SDS011;50314;50.618;10.642;2023-02-24T14:39:06;2.72;;;1.60;;
64063;SDS011;50314;50.618;10.642;2023-02-24T14:41:38;2.35;;;1.50;;
64063;SDS011;50314;50.618;10.642;2023-02-24T14:44:39;2.42;;;1.50;;
64063;SDS011;50314;50.618;10.642;2023-02-24T14:46:56;1.88;;;1.38;;
64063;SDS011;50314;50.618;10.642;2023-02-24T14:49:24;1.67;;;1.23;;
64063;SDS011;50314;50.618;10.642;2023-02-24T14:51:53;2.72;;;1.60;;
64063;SDS011;50314;50.618;10.642;2023-02-24T14:54:38;2.85;;;1.50;;
64063;SDS011;50314;50.618;10.642;2023-02-24T14:57:18;2.05;;;1.42;;
64063;SDS011;50314;50.618;10.642;2023-02-24T14:59:53;2.40;;;1.50;;
64063;SDS011;50314;50.618;10.642;2023-02-24T15:02:25;2.13;;;1.20;;
64063;SDS011;50314;50.618;10.642;2023-02-24T15:04:56;2.83;;;1.48;;
64063;SDS011;50314;50.618;10.642;2023-02-24T15:07:30;2.65;;;1.48;;
64063;SDS011;50314;50.618;10.642;2023-02-24T15:09:58;2.67;;;1.40;;
64063;SDS011;50314;50.618;10.642;2023-02-24T15:12:35;1.67;;;1.27;;
64063;SDS011;50314;50.618;10.642;2023-02-24T15:17:44;2.47;;;1.40;;
64063;SDS011;50314;50.618;10.642;2023-02-24T15:22:49;1.60;;;1.17;;
64063;SDS011;50314;50.618;10.642;2023-02-24T15:30:33;1.95;;;1.38;;
64063;SDS011;50314;50.618;10.642;2023-02-24T15:33:01;2.30;;;1.27;;
64063;SDS011;50314;50.618;10.642;2023-02-24T18:08:01;1.88;;;1.42;;
64063;SDS011;50314;50.618;10.642;2023-02-24T18:10:27;1.77;;;1.38;;
64063;SDS011;50314;50.618;10.642;2023-02-24T18:12:52;2.53;;;1.33;;
64063;SDS011;50314;50.618;10.642;2023-02-24T18:15:18;2.08;;;1.30;;
64063;SDS011;50314;50.618;10.642;2023-02-24T18:17:44;1.58;;;1.38;;
64063;SDS011;50314;50.618;10.642;2023-02-24T18:20:10;2.22;;;1.48;;
64063;SDS011;50314;50.618;10.642;2023-02-24T18:22:36;1.63;;;1.25;;
64063;SDS011;50314;50.618;10.642;2023-02-24T18:25:01;2.08;;;1.35;;
64063;SDS011;50314;50.618;10.642;2023-02-24T18:27:27;2.65;;;1.50;;
64063;SDS011;50314;50.618;10.642;2023-02-24T18:29:53;1.45;;;1.10;;
64063;SDS011;50314;50.618;10.642;2023-02-24T18:32:18;2.03;;;1.30;;
64063;SDS011;50314;50.618;10.642;2023-02-24T18:34:44;1.80;;;1.40;;
64063;SDS011;50314;50.618;10.642;2023-02-24T18:37:09;1.70;;;1.23;;
64063;SDS011;50314;50.618;10.642;2023-02-24T18:39:35;1.85;;;1.25;;
64063;SDS011;50314;50.618;10.642;2023-02-24T18:42:00;1.30;;;1.20;;
64063;SDS011;50314;50.618;10.642;2023-02-24T18:44:26;1.40;;;1.15;;
64063;SDS011;50314;50.618;10.642;2023-02-24T18:46:51;1.63;;;1.20;;
64063;SDS011;50314;50.618;10.642;2023-02-24T18:49:17;1.65;;;1.20;;
64063;SDS011;50314;50.618;10.642;2023-02-24T18:51:42;2.70;;;1.27;;
64063;SDS011;50314;50.618;10.642;2023-02-24T18:54:10;2.35;;;1.10;;
64063;SDS011;50314;50.618;10.642;2023-02-24T18:56:35;1.70;;;1.38;;
64063;SDS011;50314;50.618;10.642;2023-02-24T18:59:01;1.48;;;1.15;;
64063;SDS011;50314;50.618;10.642;2023-02-24T19:01:28;1.50;;;1.23;;
64063;SDS011;50314;50.618;10.642;2023-02-24T19:03:56;1.48;;;1.30;;
64063;SDS011;50314;50.618;10.642;2023-02-24T19:06:22;2.10;;;1.38;;
64063;SDS011;50314;50.618;10.642;2023-02-24T19:08:54;2.20;;;1.10;;
64063;SDS011;50314;50.618;10.642;2023-02-24T19:11:23;1.30;;;1.17;;
64063;SDS011;50314;50.618;10.642;2023-02-24T19:13:49;1.42;;;1.08;;
64063;SDS011;50314;50.618;10.642;2023-02-24T19:16:16;1.67;;;1.30;;
64063;SDS011;50314;50.618;10.642;2023-02-24T19:18:42;1.33;;;1.08;;
64063;SDS011;50314;50.618;10.642;2023-02-24T19:21:09;1.17;;;1.08;;
64063;SDS011;50314;50.618;10.642;2023-02-24T19:23:35;1.42;;;1.13;;
64063;SDS011;50314;50.618;10.642;2023-02-24T19:26:02;1.33;;;1.23;;
64063;SDS011;50314;50.618;10.642;2023-02-24T19:28:28;1.38;;;1.15;;
64063;SDS011;50314;50.618;10.642;2023-02-24T19:30:53;1.70;;;1.30;;
64063;SDS011;50314;50.618;10.642;2023-02-24T19:33:19;2.33;;;1.20;;
64063;SDS011;50314;50.618;10.642;2023-02-24T19:35:45;1.30;;;1.20;;
64063;SDS011;50314;50.618;10.642;2023-02-24T19:38:15;1.90;;;1.42;;
64063;SDS011;50314;50.618;10.642;2023-02-24T19:40:43;1.40;;;1.10;;
64063;SDS011;50314;50.618;10.642;2023-02-24T19:43:09;1.77;;;1.20;;
64063;SDS011;50314;50.618;10.642;2023-02-24T19:45:38;1.58;;;1.48;;
64063;SDS011;50314;50.618;10.642;2023-02-24T19:48:04;1.48;;;1.23;;
64063;SDS011;50314;50.618;10.642;2023-02-24T19:50:29;1.35;;;1.02;;
64063;SDS011;50314;50.618;10.642;2023-02-24T19:52:55;1.35;;;1.23;;
64063;SDS011;50314;50.618;10.642;2023-02-24T19:55:20;1.50;;;1.20;;
64063;SDS011;50314;50.618;10.642;2023-02-24T19:57:46;1.83;;;1.40;;
64063;SDS011;50314;50.618;10.642;2023-02-24T20:00:11;1.65;;;1.10;;
64063;SDS011;50314;50.618;10.642;2023-02-24T20:02:37;1.15;;;1.05;;
64063;SDS011;50314;50.618;10.642;2023-02-24T20:05:03;1.23;;;1.10;;
64063;SDS011;50314;50.618;10.642;2023-02-24T20:07:32;1.27;;;1.00;;
64063;SDS011;50314;50.618;10.642;2023-02-24T20:09:58;1.20;;;1.10;;
64063;SDS011;50314;50.618;10.642;2023-02-24T20:12:23;1.83;;;1.13;;